Time;durP1;ratioP1;P1;durP2;ratioP2;P2;SDS_P1;SDS_P2;PMS_P1;PMS_P2;Temp;Humidity;BMP_temperature;BMP_pressure;BME280_temperature;BME280_humidity;BME280_pressure;Samples;Min_cycle;Max_cycle;Signal;HPM_P1;HPM_P2
2021/05/05 00:02:02;;;;;;;17.10;3.17;;;6.30;99.90;;;;;;6184478;23;20039;-88
2021/05/05 00:04:28;;;;;;;11.30;2.80;;;6.20;99.90;;;;;;6210278;23;20060;-88
2021/05/05 00:06:55;;;;;;;20.92;2.47;;;6.20;99.90;;;;;;6184339;23;20021;-89
2021/05/05 00:09:21;;;;;;;15.60;3.22;;;6.10;99.90;;;;;;6210151;23;20016;-89
2021/05/05 00:11:47;;;;;;;16.52;2.13;;;6.10;99.90;;;;;;6211623;23;20513;-92
2021/05/05 00:14:16;;;;;;;18.30;2.75;;;6.20;99.90;;;;;;6212099;23;20092;-91
2021/05/05 00:16:41;;;;;;;26.67;2.75;;;6.20;99.90;;;;;;6212339;23;20446;-90
2021/05/05 00:19:07;;;;;;;18.98;3.67;;;6.10;99.90;;;;;;6209567;23;20078;-90
2021/05/05 00:21:34;;;;;;;24.70;3.65;;;6.30;99.90;;;;;;6186276;23;20021;-90
2021/05/05 00:24:00;;;;;;;20.48;3.20;;;6.20;99.90;;;;;;6185842;23;20102;-90
2021/05/05 00:26:26;;;;;;;27.13;3.60;;;6.20;99.90;;;;;;6210932;23;20028;-91
2021/05/05 00:28:52;;;;;;;18.15;2.58;;;6.20;99.90;;;;;;6160375;23;20021;-90
2021/05/05 00:31:18;;;;;;;20.08;2.55;;;6.20;99.90;;;;;;6185837;23;20038;-91
2021/05/05 00:33:44;;;;;;;15.65;2.45;;;6.20;99.90;;;;;;6185916;23;20025;-91
2021/05/05 00:36:11;;;;;;;23.33;3.97;;;6.20;99.90;;;;;;6210021;23;20370;-90
2021/05/05 00:38:37;;;;;;;28.80;4.22;;;6.20;99.90;;;;;;6210780;23;20447;-90
2021/05/05 00:41:07;;;;;;;20.15;2.80;;;6.20;99.90;;;;;;6210690;23;20461;-89
2021/05/05 00:43:34;;;;;;;24.65;3.58;;;6.20;99.90;;;;;;6211352;23;20040;-89
2021/05/05 00:46:00;;;;;;;18.75;3.75;;;6.20;99.90;;;;;;6212873;23;20016;-88
2021/05/05 00:48:27;;;;;;;26.55;3.63;;;6.20;99.90;;;;;;6211277;23;20024;-89
2021/05/05 00:50:54;;;;;;;28.55;3.20;;;6.20;99.90;;;;;;6216208;23;20012;-89
2021/05/05 00:53:20;;;;;;;21.63;3.15;;;6.30;99.90;;;;;;6216050;23;20016;-88
2021/05/05 00:55:46;;;;;;;20.55;3.33;;;6.20;99.90;;;;;;6242933;23;20017;-89
2021/05/05 00:58:12;;;;;;;25.73;4.38;;;6.20;99.90;;;;;;6241431;23;20024;-90
2021/05/05 01:00:39;;;;;;;21.20;3.60;;;6.20;99.90;;;;;;6242758;23;20399;-90
2021/05/05 01:03:06;;;;;;;12.23;2.78;;;6.20;99.90;;;;;;6190783;23;20013;-91
2021/05/05 01:05:33;;;;;;;14.10;2.95;;;6.20;99.90;;;;;;6242102;23;20024;-90
2021/05/05 01:07:58;;;;;;;17.67;3.50;;;6.20;99.90;;;;;;6241542;23;20016;-90
2021/05/05 01:10:24;;;;;;;14.65;3.25;;;6.30;99.90;;;;;;6242878;23;20094;-90
2021/05/05 01:12:50;;;;;;;21.70;4.88;;;6.30;99.90;;;;;;6215110;23;20017;-92
2021/05/05 01:15:17;;;;;;;22.17;3.33;;;6.20;99.90;;;;;;6215235;23;20035;-91
2021/05/05 01:17:43;;;;;;;24.25;3.17;;;6.20;99.90;;;;;;6216061;23;20101;-91
2021/05/05 01:20:10;;;;;;;19.98;3.75;;;6.20;99.90;;;;;;6215086;23;20020;-91
2021/05/05 01:22:36;;;;;;;23.45;3.50;;;6.30;99.90;;;;;;6190213;23;20091;-91
2021/05/05 01:25:05;;;;;;;12.48;2.15;;;6.30;99.90;;;;;;6214792;23;20020;-91
2021/05/05 01:27:30;;;;;;;29.25;4.05;;;6.30;99.90;;;;;;6244285;23;20020;-90
2021/05/05 01:29:56;;;;;;;15.48;2.90;;;6.30;99.90;;;;;;6216330;23;20023;-91
2021/05/05 01:32:22;;;;;;;18.88;4.28;;;6.30;99.90;;;;;;6217508;23;20024;-91
2021/05/05 01:34:48;;;;;;;18.23;3.55;;;6.30;99.90;;;;;;6243489;23;20074;-93
2021/05/05 01:37:15;;;;;;;18.67;2.85;;;6.30;99.90;;;;;;6217634;23;20089;-90
2021/05/05 01:39:41;;;;;;;19.92;3.28;;;6.20;99.90;;;;;;6243615;23;20020;-92
2021/05/05 01:42:08;;;;;;;15.90;2.40;;;6.30;99.90;;;;;;6191257;23;20017;-89
2021/05/05 01:44:37;;;;;;;28.90;4.30;;;6.20;99.90;;;;;;6217688;23;20087;-90
2021/05/05 01:47:04;;;;;;;;;;;6.20;99.90;;;;;;6243964;23;20031;-90
2021/05/05 01:49:31;;;;;;;17.45;2.80;;;6.20;99.90;;;;;;6217731;23;19919;-90
2021/05/05 01:52:02;;;;;;;11.98;3.58;;;6.20;99.90;;;;;;6216990;23;20075;-90
2021/05/05 01:54:28;;;;;;;18.65;3.17;;;6.20;99.90;;;;;;6228209;23;20452;-91
2021/05/05 01:56:54;;;;;;;16.70;3.03;;;6.20;99.90;;;;;;6216650;23;20020;-90
2021/05/05 01:59:19;;;;;;;12.98;2.65;;;6.20;99.90;;;;;;6217409;23;20024;-91
2021/05/05 02:01:46;;;;;;;13.45;2.33;;;6.20;99.90;;;;;;6217835;23;20012;-94
2021/05/05 02:04:11;;;;;;;12.73;2.90;;;6.20;99.90;;;;;;6243776;23;20023;-91
2021/05/05 02:06:37;;;;;;;21.27;3.80;;;6.20;99.90;;;;;;6244977;23;20095;-91
2021/05/05 02:09:04;;;;;;;17.08;2.88;;;6.10;99.90;;;;;;6217044;23;20031;-91
2021/05/05 02:11:29;;;;;;;16.48;3.08;;;6.10;99.90;;;;;;6218103;23;20020;-91
2021/05/05 02:13:55;;;;;;;13.80;3.35;;;6.10;99.90;;;;;;6218070;23;20020;-92
2021/05/05 02:16:21;;;;;;;16.20;3.15;;;6.00;99.90;;;;;;6217048;23;20022;-91
2021/05/05 02:18:47;;;;;;;17.83;3.33;;;6.00;99.90;;;;;;6217490;23;20017;-91
2021/05/05 02:21:13;;;;;;;30.67;4.57;;;6.10;99.90;;;;;;6216791;23;20370;-92
2021/05/05 02:23:39;;;;;;;16.40;3.33;;;6.10;99.90;;;;;;6244235;23;20016;-91
2021/05/05 02:26:05;;;;;;;16.15;3.22;;;6.10;99.90;;;;;;6191684;23;20095;-90
2021/05/05 02:28:32;;;;;;;18.20;2.70;;;6.10;99.90;;;;;;6218197;23;20556;-91
2021/05/05 02:30:58;;;;;;;15.88;2.95;;;6.10;99.90;;;;;;6217089;23;20020;-92
2021/05/05 02:33:26;;;;;;;21.05;2.92;;;6.20;99.90;;;;;;6217441;23;20150;-91
2021/05/05 02:35:51;;;;;;;13.18;2.45;;;6.20;99.90;;;;;;6243579;23;20016;-91
2021/05/05 02:38:18;;;;;;;8.88;1.52;;;6.20;99.90;;;;;;6191770;23;20529;-90
2021/05/05 02:40:45;;;;;;;16.90;2.17;;;6.20;99.90;;;;;;6244524;23;20020;-90
2021/05/05 02:43:11;;;;;;;20.85;2.70;;;6.10;99.90;;;;;;6216899;23;20706;-90
2021/05/05 02:45:37;;;;;;;11.07;2.60;;;6.00;99.90;;;;;;6243606;23;20030;-91
2021/05/05 02:48:03;;;;;;;19.90;3.13;;;5.80;99.90;;;;;;6191263;23;20016;-91
2021/05/05 02:50:29;;;;;;;18.45;3.28;;;5.80;99.90;;;;;;6217287;23;20020;-91
2021/05/05 02:52:55;;;;;;;18.35;3.15;;;5.80;99.90;;;;;;6217376;23;20103;-90
2021/05/05 02:55:20;;;;;;;18.55;3.55;;;5.80;99.90;;;;;;6217382;23;20020;-89
2021/05/05 02:57:46;;;;;;;21.90;3.08;;;5.70;99.90;;;;;;6245076;23;20023;-89
2021/05/05 03:00:13;;;;;;;22.92;4.15;;;5.70;99.90;;;;;;6244363;23;20090;-89
2021/05/05 03:02:39;;;;;;;16.40;2.85;;;5.70;99.90;;;;;;6244256;23;20040;-88
2021/05/05 03:05:07;;;;;;;25.65;3.60;;;5.70;99.90;;;;;;6217538;23;20469;-88
2021/05/05 03:07:32;;;;;;;16.45;3.28;;;5.70;99.90;;;;;;6244654;23;20442;-89
2021/05/05 03:09:58;;;;;;;17.08;3.35;;;5.60;99.90;;;;;;6167598;23;20111;-93
2021/05/05 03:12:24;;;;;;;10.70;2.35;;;5.40;99.90;;;;;;6167303;23;20020;-88
2021/05/05 03:14:50;;;;;;;12.70;2.92;;;5.40;99.90;;;;;;6244239;23;20026;-87
2021/05/05 03:17:16;;;;;;;12.88;2.45;;;5.30;99.90;;;;;;6243870;23;20458;-89
2021/05/05 03:19:42;;;;;;;19.23;3.42;;;5.20;99.90;;;;;;6217884;23;20095;-87
2021/05/05 03:22:08;;;;;;;21.10;3.55;;;5.30;99.90;;;;;;6192068;23;20383;-89
2021/05/05 03:24:34;;;;;;;18.00;2.95;;;5.30;99.90;;;;;;6217703;23;20016;-88
2021/05/05 03:26:59;;;;;;;17.17;2.90;;;5.30;99.90;;;;;;6217933;23;20027;-91
2021/05/05 03:29:25;;;;;;;18.42;2.72;;;5.30;99.90;;;;;;6244082;23;20514;-87
2021/05/05 03:31:52;;;;;;;19.50;2.70;;;5.20;99.90;;;;;;6192205;23;20020;-87
2021/05/05 03:34:18;;;;;;;23.70;3.53;;;5.30;99.90;;;;;;6192289;23;20016;-88
2021/05/05 03:36:45;;;;;;;17.83;4.03;;;5.30;99.90;;;;;;6217061;23;20016;-87
2021/05/05 03:39:10;;;;;;;24.75;3.53;;;5.30;99.90;;;;;;6217115;23;20020;-88
2021/05/05 03:41:36;;;;;;;14.38;2.55;;;5.40;99.90;;;;;;6192395;23;20016;-89
2021/05/05 03:44:03;;;;;;;17.92;2.95;;;5.30;99.90;;;;;;6217505;23;20036;-89
2021/05/05 03:46:29;;;;;;;9.00;2.10;;;5.30;99.90;;;;;;6217426;23;20074;-89
2021/05/05 03:48:55;;;;;;;10.30;2.45;;;5.40;99.90;;;;;;6192494;23;20020;-90
2021/05/05 03:51:21;;;;;;;10.80;1.52;;;5.30;99.90;;;;;;6191313;23;20446;-87
2021/05/05 03:53:47;;;;;;;10.88;2.75;;;5.30;99.90;;;;;;6243304;23;20027;-88
2021/05/05 03:56:13;;;;;;;11.07;1.60;;;5.20;99.90;;;;;;6215625;23;20020;-87
2021/05/05 03:58:44;;;;;;;9.02;1.40;;;5.10;99.90;;;;;;6242780;23;20123;-89
2021/05/05 04:01:10;;;;;;;6.50;1.73;;;5.10;99.90;;;;;;6216162;23;20035;-87
2021/05/05 04:03:36;;;;;;;10.90;1.73;;;5.20;99.90;;;;;;6216025;23;20016;-89
2021/05/05 04:06:02;;;;;;;13.65;3.08;;;5.20;99.90;;;;;;6216186;23;20032;-91
2021/05/05 04:08:27;;;;;;;17.40;2.08;;;5.20;99.90;;;;;;6214920;23;20016;-89
2021/05/05 04:10:53;;;;;;;9.15;1.80;;;5.30;99.90;;;;;;6190364;23;20024;-89
2021/05/05 04:13:19;;;;;;;11.90;2.22;;;5.30;99.90;;;;;;6189771;23;20016;-87
2021/05/05 04:15:45;;;;;;;12.10;2.08;;;5.40;99.90;;;;;;6214679;23;20019;-88
2021/05/05 04:18:11;;;;;;;11.23;3.10;;;5.40;99.90;;;;;;6214464;23;20150;-87
2021/05/05 04:20:37;;;;;;;13.02;2.28;;;5.40;99.90;;;;;;6241717;23;20027;-87
2021/05/05 04:23:02;;;;;;;17.17;3.03;;;5.50;99.90;;;;;;6214437;23;20086;-88
2021/05/05 04:25:28;;;;;;;18.50;2.88;;;5.50;99.90;;;;;;6214385;23;20027;-87
2021/05/05 04:27:55;;;;;;;13.38;2.08;;;5.50;99.90;;;;;;6214922;23;20027;-87
2021/05/05 04:30:21;;;;;;;9.65;1.88;;;5.50;99.90;;;;;;6214023;23;20024;-88
2021/05/05 04:32:49;;;;;;;9.75;2.28;;;5.40;99.90;;;;;;6241205;23;20016;-87
2021/05/05 04:35:16;;;;;;;10.57;1.95;;;5.40;99.90;;;;;;6240721;23;20026;-86
2021/05/05 04:37:42;;;;;;;11.13;2.20;;;5.40;99.90;;;;;;6241646;23;20020;-86
2021/05/05 04:40:09;;;;;;;21.58;2.53;;;5.30;99.90;;;;;;6214573;23;20024;-88
2021/05/05 04:42:36;;;;;;;15.68;2.03;;;5.30;99.90;;;;;;6241232;23;20016;-87
2021/05/05 04:45:07;;;;;;;17.75;2.95;;;5.30;99.90;;;;;;6241585;23;20442;-86
2021/05/05 04:47:33;;;;;;;;;;;5.40;99.90;;;;;;6241442;23;20040;-87
2021/05/05 04:49:59;;;;;;;11.48;2.40;;;5.40;99.90;;;;;;6210217;23;19930;-86
2021/05/05 04:52:25;;;;;;;17.05;3.45;;;5.50;99.90;;;;;;6218436;23;20119;-87
2021/05/05 04:54:51;;;;;;;13.68;2.17;;;5.40;99.90;;;;;;6184488;23;20067;-85
2021/05/05 04:57:17;;;;;;;11.80;2.00;;;5.60;99.90;;;;;;6183250;23;20017;-87
2021/05/05 04:59:42;;;;;;;16.70;3.22;;;5.60;99.90;;;;;;6185555;23;20016;-88
2021/05/05 05:02:08;;;;;;;12.60;1.85;;;5.50;99.90;;;;;;6212088;23;20020;-87
2021/05/05 05:04:38;;;;;;;10.88;2.30;;;5.60;99.90;;;;;;6161728;23;20013;-86
2021/05/05 05:07:05;;;;;;;11.05;1.73;;;5.60;99.90;;;;;;6211566;23;20063;-87
2021/05/05 05:09:31;;;;;;;15.35;2.22;;;5.60;99.90;;;;;;6185599;23;20021;-87
2021/05/05 05:11:58;;;;;;;16.63;2.67;;;5.60;99.90;;;;;;6186915;23;20040;-87
2021/05/05 05:14:24;;;;;;;16.67;2.70;;;5.60;99.90;;;;;;6210538;23;20470;-87
2021/05/05 05:16:49;;;;;;;16.15;3.42;;;5.70;99.90;;;;;;6211667;23;20021;-87
2021/05/05 05:19:15;;;;;;;32.72;4.35;;;5.70;99.90;;;;;;6185886;23;20021;-87
2021/05/05 05:21:41;;;;;;;31.42;3.92;;;5.70;99.90;;;;;;6162135;23;20016;-87
2021/05/05 05:24:07;;;;;;;23.35;3.15;;;5.50;99.90;;;;;;6211713;23;20017;-86
2021/05/05 05:26:33;;;;;;;17.52;3.00;;;5.70;99.90;;;;;;6212145;23;20020;-87
2021/05/05 05:29:00;;;;;;;27.63;4.38;;;5.70;99.90;;;;;;6186417;23;20012;-86
2021/05/05 05:31:27;;;;;;;28.60;3.42;;;5.70;99.90;;;;;;6210474;23;20040;-86
2021/05/05 05:33:53;;;;;;;25.45;4.07;;;5.70;99.90;;;;;;6186690;23;20016;-87
2021/05/05 05:36:19;;;;;;;21.05;3.90;;;5.80;99.90;;;;;;6210509;23;20021;-86
2021/05/05 05:38:45;;;;;;;21.73;3.15;;;5.90;99.90;;;;;;6211407;23;20091;-87
2021/05/05 05:41:12;;;;;;;30.20;4.00;;;5.90;99.90;;;;;;6210911;23;20020;-88
2021/05/05 05:43:37;;;;;;;31.63;3.72;;;5.90;99.90;;;;;;6210318;23;20017;-87
2021/05/05 05:46:03;;;;;;;29.88;3.95;;;6.00;99.90;;;;;;6211410;23;20070;-86
2021/05/05 05:48:29;;;;;;;18.30;3.22;;;6.10;99.90;;;;;;6185301;23;20027;-87
2021/05/05 05:50:56;;;;;;;27.15;4.47;;;6.20;99.90;;;;;;6215268;23;20023;-87
2021/05/05 05:53:22;;;;;;;21.35;3.38;;;6.10;99.90;;;;;;6209966;23;20017;-87
2021/05/05 05:55:48;;;;;;;23.42;3.28;;;6.20;99.90;;;;;;6212383;23;20032;-87
2021/05/05 05:58:14;;;;;;;21.17;4.05;;;6.30;99.90;;;;;;6211787;23;20458;-89
2021/05/05 06:00:40;;;;;;;22.73;4.88;;;6.30;99.90;;;;;;6185537;23;20087;-88
2021/05/05 06:03:06;;;;;;;29.60;3.97;;;6.30;99.90;;;;;;6210643;23;20017;-88
2021/05/05 06:05:33;;;;;;;27.35;4.15;;;6.40;99.90;;;;;;6210108;23;20096;-88
2021/05/05 06:07:59;;;;;;;34.20;4.38;;;6.40;99.90;;;;;;6211074;23;20493;-87
2021/05/05 06:10:25;;;;;;;17.42;3.38;;;6.30;99.90;;;;;;6184870;23;20024;-88
2021/05/05 06:12:51;;;;;;;32.78;3.80;;;6.20;99.90;;;;;;6210591;23;20017;-88
2021/05/05 06:15:17;;;;;;;24.35;3.80;;;6.20;99.90;;;;;;6185632;23;20025;-89
2021/05/05 06:17:43;;;;;;;26.55;3.72;;;6.20;99.90;;;;;;6212068;23;20450;-87
2021/05/05 06:20:09;;;;;;;27.15;3.70;;;6.20;99.90;;;;;;6161129;23;20103;-88
2021/05/05 06:22:35;;;;;;;31.92;4.03;;;6.20;99.90;;;;;;6185052;23;20016;-88
2021/05/05 06:25:03;;;;;;;32.10;4.30;;;6.20;99.90;;;;;;6212128;23;20024;-88
2021/05/05 06:27:29;;;;;;;34.10;6.28;;;6.20;99.90;;;;;;6209875;23;20031;-87
2021/05/05 06:29:55;;;;;;;24.63;4.10;;;6.30;99.90;;;;;;6212234;23;20018;-88
2021/05/05 06:32:21;;;;;;;25.95;5.10;;;6.40;99.90;;;;;;6211354;23;20387;-88
2021/05/05 06:34:48;;;;;;;26.95;4.20;;;6.40;99.90;;;;;;6210445;23;20027;-88
2021/05/05 06:37:15;;;;;;;28.30;4.15;;;6.40;99.90;;;;;;6210882;23;20435;-87
2021/05/05 06:39:41;;;;;;;8.75;1.80;;;6.40;99.90;;;;;;6209723;23;20059;-88
2021/05/05 06:42:07;;;;;;;7.28;1.55;;;5.90;99.90;;;;;;6210478;23;20335;-86
2021/05/05 06:44:32;;;;;;;12.50;1.40;;;5.40;99.90;;;;;;6209601;23;20028;-87
2021/05/05 06:46:59;;;;;;;11.73;2.30;;;4.90;99.90;;;;;;6160939;23;20102;-85
2021/05/05 06:49:25;;;;;;;24.45;4.45;;;5.00;99.90;;;;;;6209076;23;20593;-86
2021/05/05 06:51:52;;;;;;;7.47;1.83;;;5.10;99.90;;;;;;6211458;23;20020;-87
2021/05/05 06:54:18;;;;;;;12.73;2.50;;;5.30;99.90;;;;;;6211629;23;20021;-88
2021/05/05 06:56:44;;;;;;;18.23;3.22;;;5.50;99.90;;;;;;6211688;23;20016;-87
2021/05/05 06:59:10;;;;;;;16.20;2.85;;;5.30;99.90;;;;;;6210825;23;20335;-87
2021/05/05 07:01:39;;;;;;;35.00;4.85;;;5.30;99.90;;;;;;6210541;23;20016;-87
2021/05/05 07:04:07;;;;;;;32.67;4.10;;;5.40;99.90;;;;;;6210952;23;20020;-86
2021/05/05 07:06:33;;;;;;;16.27;3.30;;;5.60;99.90;;;;;;6210782;23;20020;-86
2021/05/05 07:09:00;;;;;;;24.55;4.13;;;5.60;99.90;;;;;;6211834;23;20021;-84
2021/05/05 07:11:32;;;;;;;27.42;4.40;;;5.90;99.90;;;;;;6211459;23;20052;-85
2021/05/05 07:13:57;;;;;;;27.17;4.38;;;5.90;99.90;;;;;;6161528;23;20390;-86
2021/05/05 07:16:23;;;;;;;21.58;3.63;;;6.00;99.90;;;;;;6210989;23;20040;-86
2021/05/05 07:18:49;;;;;;;19.63;3.38;;;6.00;99.90;;;;;;6185053;23;20048;-88
2021/05/05 07:21:15;;;;;;;28.15;4.05;;;6.00;99.90;;;;;;6210194;23;20032;-85
2021/05/05 07:23:43;;;;;;;17.10;3.08;;;6.00;99.90;;;;;;6208391;23;20009;-86
2021/05/05 07:26:09;;;;;;;19.42;2.92;;;6.10;99.90;;;;;;6209407;23;20149;-87
2021/05/05 07:28:35;;;;;;;33.60;3.35;;;6.00;99.90;;;;;;6207730;23;20016;-86
2021/05/05 07:31:01;;;;;;;6.75;1.00;;;5.70;99.90;;;;;;6209503;23;20024;-87
2021/05/05 07:33:27;;;;;;;4.10;1.48;;;5.40;99.90;;;;;;6210757;23;20013;-86
2021/05/05 07:35:55;;;;;;;11.88;1.67;;;5.50;99.90;;;;;;6210104;23;20079;-86
2021/05/05 07:46:40;;;;;;;11.00;1.80;;;5.80;99.90;;;;;;6220477;23;20048;-87
2021/05/05 07:49:07;;;;;;;13.40;2.55;;;5.90;99.90;;;;;;6220100;23;20074;-87
2021/05/05 07:51:33;;;;;;;15.13;2.72;;;6.10;99.90;;;;;;6216343;23;20025;-85
2021/05/05 07:53:59;;;;;;;11.65;2.40;;;6.20;99.90;;;;;;6211049;23;20022;-84
2021/05/05 07:56:24;;;;;;;12.77;2.83;;;6.30;99.90;;;;;;6208814;23;20027;-85
2021/05/05 07:58:50;;;;;;;23.05;3.65;;;6.40;99.90;;;;;;6211837;23;20391;-85
2021/05/05 08:01:17;;;;;;;25.15;3.45;;;6.50;99.90;;;;;;6208313;23;20020;-85
2021/05/05 08:03:43;;;;;;;27.33;4.10;;;6.50;99.90;;;;;;6206617;23;20431;-85
2021/05/05 08:06:09;;;;;;;22.60;2.90;;;6.70;99.90;;;;;;6184105;23;20117;-86
2021/05/05 08:08:35;;;;;;;14.38;3.20;;;6.60;99.90;;;;;;6210252;23;20504;-85
2021/05/05 08:11:02;;;;;;;20.73;4.15;;;6.60;99.90;;;;;;6212305;23;20017;-85
2021/05/05 08:13:28;;;;;;;24.15;4.00;;;6.50;99.90;;;;;;6210670;23;20026;-86
2021/05/05 08:15:55;;;;;;;15.98;2.75;;;6.50;99.90;;;;;;6208954;23;20088;-85
2021/05/05 08:18:22;;;;;;;14.90;2.55;;;6.50;99.90;;;;;;6208270;23;20027;-85
2021/05/05 08:20:48;;;;;;;16.83;2.40;;;6.60;99.90;;;;;;6210943;23;20021;-85
2021/05/05 08:23:16;;;;;;;10.55;3.58;;;6.70;99.90;;;;;;6211171;23;20012;-85
2021/05/05 08:25:43;;;;;;;14.35;2.00;;;6.70;99.90;;;;;;6208593;23;20151;-86
2021/05/05 08:28:10;;;;;;;12.00;1.90;;;6.80;99.90;;;;;;6208755;23;20099;-86
2021/05/05 08:30:36;;;;;;;8.05;2.70;;;6.70;99.90;;;;;;6208854;23;20098;-86
2021/05/05 08:33:03;;;;;;;5.75;1.40;;;6.60;99.90;;;;;;6209666;23;20371;-86
2021/05/05 08:35:29;;;;;;;15.75;2.55;;;6.50;99.90;;;;;;6209946;23;20031;-88
2021/05/05 08:37:55;;;;;;;7.45;1.77;;;6.50;99.90;;;;;;6210730;23;20017;-85
2021/05/05 08:40:21;;;;;;;10.88;1.55;;;6.60;99.90;;;;;;6209636;23;20103;-86
2021/05/05 08:42:48;;;;;;;9.63;1.10;;;6.50;99.90;;;;;;6209215;23;20012;-86
2021/05/05 08:45:20;;;;;;;3.13;0.75;;;6.40;99.90;;;;;;6184372;23;20036;-85
2021/05/05 08:47:51;;;;;;;7.25;1.67;;;6.40;99.90;;;;;;6210450;23;20324;-85
2021/05/05 08:50:21;;;;;;;6.47;1.30;;;6.50;99.90;;;;;;6220325;23;20017;-85
2021/05/05 08:52:47;;;;;;;7.88;1.30;;;6.70;99.90;;;;;;6222225;23;20092;-86
2021/05/05 08:55:16;;;;;;;9.18;1.25;;;6.80;99.90;;;;;;6208464;23;20024;-85
2021/05/05 08:57:42;;;;;;;10.82;1.75;;;6.90;99.90;;;;;;6204080;23;20017;-85
2021/05/05 09:00:15;;;;;;;14.60;2.22;;;7.00;99.90;;;;;;6207861;23;20047;-87
2021/05/05 09:02:40;;;;;;;5.95;1.35;;;7.00;99.90;;;;;;6209188;23;20020;-87
2021/05/05 09:05:10;;;;;;;10.80;1.60;;;7.00;99.90;;;;;;6210575;23;20380;-86
2021/05/05 09:07:41;;;;;;;16.02;1.75;;;7.10;99.90;;;;;;6208501;23;20028;-88
2021/05/05 09:10:08;;;;;;;16.83;2.00;;;7.20;99.90;;;;;;6209275;23;20091;-87
2021/05/05 09:12:42;;;;;;;14.80;1.52;;;7.40;99.90;;;;;;6209895;23;20024;-86
2021/05/05 09:15:12;;;;;;;9.32;1.85;;;7.60;99.90;;;;;;6220518;23;20082;-86
2021/05/05 09:17:40;;;;;;;7.05;1.33;;;7.80;99.90;;;;;;6209291;23;20051;-87
2021/05/05 09:20:05;;;;;;;11.00;1.45;;;7.90;99.90;;;;;;6210392;23;20016;-87
2021/05/05 09:22:56;;;;;;;6.68;1.45;;;7.80;99.90;;;;;;6209989;23;20020;-88
2021/05/05 09:25:44;;;;;;;16.48;1.42;;;7.40;99.90;;;;;;6220690;23;20017;-86
2021/05/05 09:28:19;;;;;;;9.75;2.05;;;7.30;99.90;;;;;;6210711;23;20023;-86
2021/05/05 09:30:49;;;;;;;8.35;2.08;;;7.30;99.90;;;;;;6209686;23;20086;-86
2021/05/05 09:33:33;;;;;;;9.57;1.52;;;7.40;99.90;;;;;;6208079;23;20016;-86
2021/05/05 09:36:02;;;;;;;6.50;1.40;;;7.60;99.90;;;;;;6219470;23;20427;-86
2021/05/05 09:38:51;;;;;;;2.85;0.90;;;7.70;99.90;;;;;;6209049;23;20024;-87
2021/05/05 09:41:28;;;;;;;13.95;2.00;;;8.00;99.90;;;;;;6210482;23;20024;-86
2021/05/05 09:44:06;;;;;;;8.93;2.30;;;8.00;99.90;;;;;;6218259;23;20028;-87
2021/05/05 09:46:42;;;;;;;9.10;1.85;;;7.30;99.90;;;;;;6210326;23;20281;-87
2021/05/05 09:49:34;;;;;;;10.73;1.40;;;7.20;99.90;;;;;;6212606;23;20025;-86
2021/05/05 09:52:07;;;;;;;10.68;2.03;;;7.30;99.90;;;;;;6210849;23;20769;-86
2021/05/05 09:54:37;;;;;;;12.80;1.80;;;7.20;99.90;;;;;;6207984;23;20016;-86
2021/05/05 09:57:19;;;;;;;10.63;2.00;;;7.10;99.90;;;;;;6207183;23;20024;-84
2021/05/05 09:59:58;;;;;;;25.08;2.92;;;7.20;99.90;;;;;;6206682;23;20040;-86
2021/05/05 10:02:26;;;;;;;17.33;3.00;;;7.10;99.90;;;;;;6211904;23;20012;-87
2021/05/05 10:05:03;;;;;;;7.45;2.42;;;7.00;99.90;;;;;;6184619;23;20382;-85
2021/05/05 10:07:47;;;;;;;10.50;2.08;;;6.60;99.90;;;;;;6212102;23;20016;-86
2021/05/05 10:10:13;;;;;;;5.82;1.77;;;6.40;99.90;;;;;;6220733;23;20040;-86
2021/05/05 10:12:47;;;;;;;10.82;2.40;;;6.70;99.90;;;;;;6197075;23;20027;-87
2021/05/05 10:15:15;;;;;;;20.05;2.83;;;7.00;99.90;;;;;;6212084;23;20366;-88
2021/05/05 10:17:43;;;;;;;10.95;2.35;;;7.10;99.90;;;;;;6211249;23;20102;-86
2021/05/05 10:20:10;;;;;;;11.05;1.95;;;7.30;99.90;;;;;;6211503;23;20339;-86
2021/05/05 10:22:37;;;;;;;11.82;2.20;;;7.50;99.90;;;;;;6209352;23;20099;-87
2021/05/05 10:25:03;;;;;;;9.50;2.20;;;7.60;99.90;;;;;;6211085;23;20055;-85
2021/05/05 10:27:30;;;;;;;16.25;2.75;;;7.70;99.90;;;;;;6159774;23;20014;-86
2021/05/05 10:29:56;;;;;;;13.13;2.47;;;8.10;99.90;;;;;;6183976;23;20025;-86
2021/05/05 10:32:23;;;;;;;16.55;3.20;;;8.20;99.90;;;;;;6181731;23;20348;-88
2021/05/05 10:34:51;;;;;;;18.13;2.88;;;8.30;99.90;;;;;;6206673;23;20112;-87
2021/05/05 10:37:17;;;;;;;12.35;2.55;;;7.80;99.90;;;;;;6209092;23;20029;-88
2021/05/05 10:39:45;;;;;;;9.18;2.33;;;7.40;99.90;;;;;;6209588;23;20066;-88
2021/05/05 10:42:19;;;;;;;20.17;3.75;;;7.40;99.90;;;;;;6210494;23;20035;-90
2021/05/05 10:44:49;;;;;;;14.73;2.45;;;7.50;99.90;;;;;;6219528;23;20471;-90
2021/05/05 10:47:31;;;;;;;;;;;7.60;99.90;;;;;;6211887;23;20013;-90
2021/05/05 10:52:43;;;;;;;10.90;2.50;;;7.90;99.90;;;;;;6214337;23;20020;-88
2021/05/05 10:55:11;;;;;;;11.50;2.53;;;7.80;99.90;;;;;;6212101;23;20526;-86
2021/05/05 10:57:38;;;;;;;13.13;2.63;;;7.90;99.90;;;;;;6209879;23;20028;-89
2021/05/05 11:00:08;;;;;;;40.30;4.95;;;8.10;99.90;;;;;;6184632;23;20020;-88
2021/05/05 11:05:16;;;;;;;11.85;2.00;;;7.00;99.90;;;;;;6211515;23;20032;-91
2021/05/05 11:07:49;;;;;;;9.95;2.25;;;7.00;99.90;;;;;;6220888;23;20471;-91
2021/05/05 11:10:36;;;;;;;8.98;2.13;;;7.10;99.90;;;;;;6184810;23;20450;-89
2021/05/05 11:13:18;;;;;;;7.88;1.95;;;7.00;99.90;;;;;;6183937;23;20026;-90
2021/05/05 11:15:44;;;;;;;11.50;2.22;;;7.30;99.90;;;;;;6210530;23;20023;-90
2021/05/05 11:18:35;;;;;;;11.27;2.80;;;7.50;99.90;;;;;;6208916;23;20097;-90
2021/05/05 11:21:22;;;;;;;13.55;3.03;;;7.90;99.90;;;;;;6209291;23;20063;-89
2021/05/05 11:23:48;;;;;;;13.23;3.42;;;8.00;99.90;;;;;;6206718;23;20027;-89
2021/05/05 11:26:21;;;;;;;19.67;3.33;;;8.00;99.90;;;;;;6185591;23;20398;-91
2021/05/05 11:28:57;;;;;;;15.73;3.35;;;7.70;99.90;;;;;;6222221;23;20016;-92
2021/05/05 11:31:47;;;;;;;11.52;2.17;;;7.50;99.90;;;;;;6212759;23;20021;-92
2021/05/05 11:36:45;;;;;;;11.70;2.85;;;7.90;99.90;;;;;;6213072;23;20063;-92
2021/05/05 11:39:22;;;;;;;14.65;2.95;;;8.00;99.90;;;;;;6213511;23;20396;-91
2021/05/05 11:42:23;;;;;;;15.35;3.00;;;8.20;99.90;;;;;;6211588;23;20388;-91
2021/05/05 11:44:57;;;;;;;31.80;4.03;;;8.30;99.90;;;;;;6198129;23;20055;-91
2021/05/05 11:47:33;;;;;;;12.82;3.40;;;8.30;99.90;;;;;;6212049;23;20040;-91
2021/05/05 11:50:01;;;;;;;20.85;3.72;;;8.80;99.90;;;;;;6221532;23;20024;-91
2021/05/05 11:52:34;;;;;;;11.50;3.15;;;8.80;99.90;;;;;;6211993;23;20013;-91
2021/05/05 11:55:13;;;;;;;13.35;3.42;;;8.70;99.90;;;;;;6212330;23;20021;-92
2021/05/05 11:57:51;;;;;;;15.90;3.20;;;8.70;99.90;;;;;;6213261;23;20041;-92
2021/05/05 12:00:25;;;;;;;24.23;3.28;;;8.80;99.90;;;;;;6223023;23;20039;-92
2021/05/05 12:02:56;;;;;;;21.75;3.20;;;8.80;99.90;;;;;;6220887;23;20020;-89
2021/05/05 12:05:44;;;;;;;17.55;3.65;;;8.70;99.90;;;;;;6212961;23;20047;-91
2021/05/05 12:08:18;;;;;;;16.10;2.95;;;8.70;99.90;;;;;;6221392;23;20024;-91
2021/05/05 12:10:46;;;;;;;17.75;3.35;;;8.90;99.90;;;;;;6211172;23;20051;-91
2021/05/05 12:13:26;;;;;;;12.45;2.90;;;9.10;99.90;;;;;;6186309;23;20335;-92
2021/05/05 12:16:25;;;;;;;17.25;3.72;;;9.00;99.90;;;;;;6221132;23;20091;-93
2021/05/05 12:18:51;;;;;;;14.23;3.53;;;8.80;99.90;;;;;;6216267;23;20777;-94
2021/05/05 12:21:24;;;;;;;18.35;3.15;;;8.90;99.90;;;;;;6211751;23;20020;-92
2021/05/05 12:24:00;;;;;;;20.20;4.13;;;8.90;99.90;;;;;;6185661;23;20012;-91
2021/05/05 12:26:33;;;;;;;19.80;4.13;;;8.90;99.90;;;;;;6220858;23;20016;-90
2021/05/05 12:29:04;;;;;;;13.65;3.55;;;8.60;99.90;;;;;;6211915;23;20071;-89
2021/05/05 12:31:32;;;;;;;8.95;2.63;;;8.10;99.90;;;;;;6223399;23;20092;-92
2021/05/05 12:34:00;;;;;;;12.18;2.35;;;7.10;99.90;;;;;;6209052;23;20024;-91
2021/05/05 12:36:34;;;;;;;7.22;1.85;;;7.10;99.90;;;;;;6208524;23;20016;-91
2021/05/05 12:39:14;;;;;;;15.10;2.78;;;7.30;99.90;;;;;;6206098;23;20458;-90
2021/05/05 12:41:45;;;;;;;11.65;2.60;;;7.60;99.90;;;;;;6215525;23;20017;-92
2021/05/05 12:44:13;;;;;;;17.25;3.20;;;7.90;99.90;;;;;;6207464;23;20043;-91
2021/05/05 12:47:06;;;;;;;16.88;3.42;;;8.30;99.90;;;;;;6205978;23;20020;-90
2021/05/05 12:49:35;;;;;;;19.80;4.03;;;8.70;99.90;;;;;;6205836;23;20021;-90
2021/05/05 12:52:02;;;;;;;24.45;4.47;;;8.90;99.90;;;;;;6205428;23;20020;-90
2021/05/05 12:54:31;;;;;;;21.13;3.20;;;9.00;99.90;;;;;;6207893;23;20028;-90
2021/05/05 12:56:59;;;;;;;22.65;4.32;;;9.30;99.90;;;;;;6205900;23;20083;-90
2021/05/05 12:59:24;;;;;;;25.27;4.15;;;9.70;99.90;;;;;;6207829;23;20021;-93
2021/05/05 13:02:02;;;;;;;27.10;4.65;;;9.50;99.90;;;;;;6206706;23;20032;-91
2021/05/05 13:04:43;;;;;;;17.65;3.67;;;9.40;99.90;;;;;;6217105;23;20055;-91
2021/05/05 13:07:28;;;;;;;15.48;3.75;;;9.40;99.90;;;;;;6217346;23;20461;-92
2021/05/05 13:10:17;;;;;;;13.98;3.60;;;9.10;99.90;;;;;;6205358;23;20016;-89
2021/05/05 13:12:57;;;;;;;20.65;3.83;;;8.70;99.90;;;;;;6216838;23;20016;-94